Time;durP1;ratioP1;P1;durP2;ratioP2;P2;SDS_P1;SDS_P2;PMS_P1;PMS_P2;Temp;Humidity;BMP_temperature;BMP_pressure;BME280_temperature;BME280_humidity;BME280_pressure;Samples;Min_cycle;Max_cycle;Signal;HPM_P1;HPM_P2
2022/11/15 00:01:57;;;;;;;;;2.25;2.25;;;;;;;;5085182;27;61834;-84
2022/11/15 00:04:23;;;;;;;;;4.25;3.25;;;;;;;;5081676;27;61790;-85
2022/11/15 00:06:48;;;;;;;;;3.25;3.00;;;;;;;;5081620;28;61720;-82
2022/11/15 00:09:13;;;;;;;;;3.00;3.00;;;;;;;;5083664;27;61898;-83
2022/11/15 00:11:38;;;;;;;;;4.00;3.00;;;;;;;;5082880;28;61822;-84
2022/11/15 00:14:04;;;;;;;;;6.50;4.25;;;;;;;;5083420;27;61779;-84
2022/11/15 00:16:29;;;;;;;;;3.25;3.25;;;;;;;;5082198;27;61924;-85
2022/11/15 00:18:54;;;;;;;;;4.25;4.25;;;;;;;;5081205;28;62223;-84
2022/11/15 00:21:19;;;;;;;;;4.25;4.25;;;;;;;;5082419;27;61865;-82
2022/11/15 00:23:45;;;;;;;;;5.00;3.00;;;;;;;;5081549;27;62042;-85
2022/11/15 00:26:12;;;;;;;;;3.00;3.00;;;;;;;;5082049;27;61953;-85
2022/11/15 00:28:37;;;;;;;;;7.25;3.00;;;;;;;;5081913;27;61862;-85
2022/11/15 00:31:03;;;;;;;;;4.00;4.00;;;;;;;;5082490;28;61767;-85
2022/11/15 00:33:29;;;;;;;;;4.25;4.25;;;;;;;;5082027;28;61792;-85
2022/11/15 00:35:59;;;;;;;;;3.25;3.25;;;;;;;;5082502;28;61959;-84
2022/11/15 00:38:24;;;;;;;;;3.75;3.00;;;;;;;;5082700;27;62071;-85
2022/11/15 00:40:49;;;;;;;;;2.00;2.00;;;;;;;;5081226;28;63703;-84
2022/11/15 00:43:14;;;;;;;;;1.00;1.00;;;;;;;;5081516;28;61899;-85
2022/11/15 00:45:40;;;;;;;;;3.25;2.00;;;;;;;;5081460;27;61826;-85
2022/11/15 00:48:05;;;;;;;;;3.25;2.00;;;;;;;;5081918;27;62272;-84
2022/11/15 00:50:30;;;;;;;;;4.00;2.00;;;;;;;;5080836;27;62108;-84
2022/11/15 00:52:55;;;;;;;;;2.00;2.00;;;;;;;;5081482;28;61851;-84
2022/11/15 00:55:21;;;;;;;;;1.75;1.00;;;;;;;;5081222;28;62040;-84
2022/11/15 00:57:46;;;;;;;;;1.00;1.00;;;;;;;;5081496;27;61892;-84
2022/11/15 01:00:12;;;;;;;;;10.50;3.25;;;;;;;;5079916;28;64396;-84
2022/11/15 01:02:37;;;;;;;;;3.00;2.00;;;;;;;;5081280;28;61907;-85
2022/11/15 01:05:02;;;;;;;;;3.00;1.00;;;;;;;;5080484;27;61767;-84
2022/11/15 01:07:28;;;;;;;;;1.00;1.00;;;;;;;;5081241;27;61855;-84
2022/11/15 01:09:53;;;;;;;;;1.50;1.00;;;;;;;;5081860;27;61925;-84
2022/11/15 01:12:18;;;;;;;;;1.50;1.50;;;;;;;;5082802;27;61973;-84
2022/11/15 01:14:43;;;;;;;;;2.00;1.00;;;;;;;;5081119;27;62085;-85
2022/11/15 01:17:09;;;;;;;;;2.00;1.00;;;;;;;;5081295;28;61812;-84
2022/11/15 01:19:34;;;;;;;;;1.00;1.00;;;;;;;;5080475;28;61941;-84
2022/11/15 01:21:59;;;;;;;;;3.00;2.00;;;;;;;;5081932;28;61679;-84
2022/11/15 01:24:25;;;;;;;;;1.50;1.50;;;;;;;;5082625;27;61824;-85
2022/11/15 01:26:50;;;;;;;;;0.00;0.00;;;;;;;;5081066;28;61769;-84
2022/11/15 01:29:15;;;;;;;;;2.25;1.50;;;;;;;;5080572;28;62877;-84
2022/11/15 01:31:41;;;;;;;;;2.00;1.00;;;;;;;;5082392;27;61742;-84
2022/11/15 01:34:06;;;;;;;;;0.50;0.50;;;;;;;;5081342;28;61606;-84
2022/11/15 01:36:31;;;;;;;;;1.00;1.00;;;;;;;;5076397;28;61906;-84
2022/11/15 01:38:58;;;;;;;;;1.00;1.00;;;;;;;;5061249;28;61980;-84
2022/11/15 01:41:31;;;;;;;;;1.50;1.50;;;;;;;;5060991;28;62133;-84
2022/11/15 01:44:15;;;;;;;;;2.00;2.00;;;;;;;;5060531;28;61924;-84
2022/11/15 01:46:43;;;;;;;;;1.00;1.00;;;;;;;;5060640;28;61833;-84
2022/11/15 01:49:13;;;;;;;;;1.50;1.50;;;;;;;;5058253;28;64330;-84
2022/11/15 01:51:38;;;;;;;;;1.50;1.00;;;;;;;;5062209;28;61701;-84
2022/11/15 01:54:17;;;;;;;;;4.75;1.00;;;;;;;;5060594;28;61958;-84
2022/11/15 01:56:48;;;;;;;;;2.00;1.00;;;;;;;;5060625;28;61915;-84
2022/11/15 01:59:14;;;;;;;;;2.00;0.00;;;;;;;;5059491;28;63149;-84
2022/11/15 02:01:40;;;;;;;;;3.50;1.50;;;;;;;;5060662;28;61938;-84
2022/11/15 02:04:15;;;;;;;;;2.50;1.75;;;;;;;;5059199;28;63088;-83
2022/11/15 02:06:42;;;;;;;;;1.00;1.00;;;;;;;;5061846;28;62071;-84
2022/11/15 02:09:07;;;;;;;;;4.50;1.00;;;;;;;;5060979;28;61957;-84
2022/11/15 02:11:33;;;;;;;;;0.00;0.00;;;;;;;;5060378;28;61768;-84
2022/11/15 02:13:59;;;;;;;;;1.00;1.00;;;;;;;;5064639;28;62162;-84
2022/11/15 02:16:43;;;;;;;;;0.00;0.00;;;;;;;;5065459;28;61822;-84
2022/11/15 02:19:21;;;;;;;;;0.50;0.00;;;;;;;;5061660;28;64857;-84
2022/11/15 02:21:54;;;;;;;;;3.25;1.25;;;;;;;;5064768;28;61820;-84
2022/11/15 02:24:22;;;;;;;;;1.00;1.00;;;;;;;;5063731;28;62120;-84
2022/11/15 02:27:06;;;;;;;;;1.00;0.75;;;;;;;;5064974;28;61871;-84
2022/11/15 02:29:50;;;;;;;;;1.50;1.50;;;;;;;;5064405;28;62028;-83
2022/11/15 02:32:20;;;;;;;;;3.00;0.00;;;;;;;;5062639;28;62063;-83
2022/11/15 02:34:58;;;;;;;;;1.00;1.00;;;;;;;;5072528;28;61916;-83
2022/11/15 02:37:37;;;;;;;;;1.00;1.00;;;;;;;;5083467;27;62110;-83
2022/11/15 02:40:09;;;;;;;;;3.00;2.00;;;;;;;;5082700;27;63320;-83
2022/11/15 02:45:28;;;;;;;;;0.75;0.75;;;;;;;;5085113;27;61672;-83
2022/11/15 02:47:56;;;;;;;;;2.75;1.00;;;;;;;;5084746;27;61776;-83
2022/11/15 02:50:24;;;;;;;;;1.00;1.00;;;;;;;;5081766;27;61899;-83
2022/11/15 02:52:50;;;;;;;;;3.00;1.00;;;;;;;;5083356;27;61812;-83
2022/11/15 02:55:33;;;;;;;;;2.00;2.00;;;;;;;;5083037;28;61930;-83
2022/11/15 02:58:17;;;;;;;;;2.00;0.25;;;;;;;;5084830;27;62012;-83
2022/11/15 03:00:58;;;;;;;;;0.75;0.75;;;;;;;;5082339;27;61924;-83
2022/11/15 03:03:26;;;;;;;;;3.75;1.00;;;;;;;;5082908;27;62088;-82
2022/11/15 03:05:56;;;;;;;;;0.50;0.50;;;;;;;;5104808;27;62013;-83
2022/11/15 03:08:26;;;;;;;;;1.75;1.75;;;;;;;;5086666;27;61835;-83
2022/11/15 03:10:57;;;;;;;;;0.50;0.50;;;;;;;;5104470;27;62944;-83
2022/11/15 03:13:25;;;;;;;;;1.25;0.50;;;;;;;;5104521;27;62062;-83
2022/11/15 03:15:56;;;;;;;;;0.75;0.75;;;;;;;;5085984;27;61971;-83
2022/11/15 03:18:29;;;;;;;;;4.00;1.00;;;;;;;;5104818;27;61931;-83
2022/11/15 03:20:55;;;;;;;;;2.00;1.50;;;;;;;;5085516;27;62089;-83
2022/11/15 03:23:21;;;;;;;;;2.00;2.00;;;;;;;;5085714;27;61920;-83
2022/11/15 03:25:48;;;;;;;;;1.00;1.00;;;;;;;;5086259;27;61837;-83
2022/11/15 03:28:16;;;;;;;;;2.00;2.00;;;;;;;;5104501;27;61670;-83
2022/11/15 03:30:44;;;;;;;;;3.50;2.00;;;;;;;;5103923;27;62653;-83
2022/11/15 03:33:10;;;;;;;;;5.75;2.00;;;;;;;;5086094;27;62009;-83
2022/11/15 03:35:38;;;;;;;;;1.50;1.50;;;;;;;;5085836;27;62057;-83
2022/11/15 03:38:09;;;;;;;;;3.00;2.00;;;;;;;;5103970;27;61937;-83
2022/11/15 03:40:39;;;;;;;;;2.00;2.00;;;;;;;;5085142;27;64672;-83
2022/11/15 03:43:07;;;;;;;;;3.00;2.25;;;;;;;;5104502;27;61947;-83
2022/11/15 03:45:39;;;;;;;;;4.00;2.00;;;;;;;;5085368;27;61985;-83
2022/11/15 03:48:14;;;;;;;;;1.00;1.00;;;;;;;;5085871;27;62025;-84
2022/11/15 03:50:40;;;;;;;;;3.75;2.00;;;;;;;;5084142;27;63901;-83
2022/11/15 03:53:06;;;;;;;;;7.00;1.25;;;;;;;;5104209;27;61949;-83
2022/11/15 03:55:31;;;;;;;;;4.75;2.00;;;;;;;;5085759;27;61865;-82
2022/11/15 03:57:58;;;;;;;;;2.50;1.50;;;;;;;;5085988;27;62139;-83
2022/11/15 04:00:23;;;;;;;;;2.00;1.00;;;;;;;;5103038;27;62009;-83
2022/11/15 04:02:49;;;;;;;;;3.00;1.00;;;;;;;;5085814;27;61978;-83
2022/11/15 04:05:14;;;;;;;;;5.00;2.50;;;;;;;;5103616;27;61754;-83
2022/11/15 04:07:39;;;;;;;;;2.00;0.75;;;;;;;;5103992;27;61652;-83
2022/11/15 04:10:05;;;;;;;;;2.00;2.00;;;;;;;;5103536;27;63304;-83
2022/11/15 04:12:34;;;;;;;;;2.00;2.00;;;;;;;;5104012;27;61725;-83
2022/11/15 04:15:07;;;;;;;;;4.75;2.00;;;;;;;;5103590;27;61791;-83
2022/11/15 04:17:52;;;;;;;;;1.25;1.25;;;;;;;;5103814;27;61991;-83
2022/11/15 04:25:58;;;;;;;;;2.25;0.00;;;;;;;;5103967;27;61677;-83
2022/11/15 04:28:23;;;;;;;;;2.50;1.50;;;;;;;;5084861;27;62093;-83
2022/11/15 04:30:48;;;;;;;;;5.25;2.75;;;;;;;;5084409;27;61758;-83
2022/11/15 04:33:14;;;;;;;;;3.00;2.00;;;;;;;;5085069;27;61769;-83
2022/11/15 04:35:40;;;;;;;;;2.50;2.50;;;;;;;;5102304;27;61866;-83
2022/11/15 04:38:06;;;;;;;;;2.50;2.00;;;;;;;;5103489;27;61945;-83
2022/11/15 04:40:31;;;;;;;;;4.00;1.75;;;;;;;;5102812;27;62930;-83
2022/11/15 04:42:56;;;;;;;;;2.50;2.50;;;;;;;;5084625;27;61863;-83
2022/11/15 04:45:22;;;;;;;;;2.25;1.00;;;;;;;;5103423;27;61835;-83
2022/11/15 04:47:47;;;;;;;;;2.00;2.00;;;;;;;;5084897;27;61823;-83
2022/11/15 04:50:13;;;;;;;;;2.00;2.00;;;;;;;;5082939;27;64842;-83
2022/11/15 04:52:58;;;;;;;;;2.25;1.00;;;;;;;;5084924;27;61976;-83
2022/11/15 04:55:24;;;;;;;;;1.00;0.00;;;;;;;;5084515;27;61856;-83
2022/11/15 04:57:57;;;;;;;;;1.00;1.00;;;;;;;;5084272;27;62283;-83
2022/11/15 05:00:22;;;;;;;;;6.00;3.00;;;;;;;;5084331;27;62671;-83
2022/11/15 05:05:31;;;;;;;;;2.25;1.75;;;;;;;;5102935;27;61712;-83
2022/11/15 05:07:57;;;;;;;;;3.50;2.50;;;;;;;;5084185;27;61839;-83
2022/11/15 05:10:22;;;;;;;;;2.75;2.00;;;;;;;;5102796;27;61880;-83
2022/11/15 05:12:47;;;;;;;;;1.25;1.25;;;;;;;;5102594;27;62177;-83
2022/11/15 05:15:13;;;;;;;;;1.00;1.00;;;;;;;;5084670;27;62022;-84
2022/11/15 05:17:38;;;;;;;;;1.00;1.00;;;;;;;;5084498;27;62184;-83
2022/11/15 05:20:04;;;;;;;;;1.00;1.00;;;;;;;;5083049;27;64873;-83
2022/11/15 05:22:30;;;;;;;;;2.75;1.50;;;;;;;;5084443;27;61819;-83
2022/11/15 05:24:55;;;;;;;;;1.50;1.25;;;;;;;;5084494;27;61883;-83
2022/11/15 05:27:20;;;;;;;;;1.00;1.00;;;;;;;;5102489;27;61805;-83
2022/11/15 05:29:50;;;;;;;;;2.50;1.00;;;;;;;;5083526;27;63445;-83
2022/11/15 05:32:17;;;;;;;;;6.00;3.00;;;;;;;;5084698;27;62067;-83
2022/11/15 05:34:42;;;;;;;;;2.50;2.00;;;;;;;;5084024;27;62069;-83
2022/11/15 05:37:08;;;;;;;;;5.25;2.00;;;;;;;;5102621;27;62165;-83
2022/11/15 05:39:33;;;;;;;;;1.00;0.75;;;;;;;;5101944;27;62020;-83
2022/11/15 05:42:06;;;;;;;;;3.00;1.00;;;;;;;;5084258;27;61739;-84
2022/11/15 05:44:31;;;;;;;;;2.25;1.00;;;;;;;;5103088;27;61958;-83
2022/11/15 05:46:57;;;;;;;;;3.00;1.25;;;;;;;;5086942;27;61803;-83
2022/11/15 05:49:24;;;;;;;;;2.25;2.00;;;;;;;;5086274;27;63765;-83
2022/11/15 05:51:53;;;;;;;;;2.00;2.00;;;;;;;;5087812;27;61956;-83
2022/11/15 05:54:19;;;;;;;;;2.75;2.75;;;;;;;;5106466;27;61895;-83
2022/11/15 05:56:45;;;;;;;;;4.75;2.00;;;;;;;;5087969;27;61934;-84
2022/11/15 05:59:10;;;;;;;;;3.00;1.00;;;;;;;;5087091;27;63750;-83
2022/11/15 06:01:36;;;;;;;;;3.00;3.00;;;;;;;;5087800;27;62055;-84
2022/11/15 06:04:01;;;;;;;;;2.00;2.00;;;;;;;;5106014;27;62005;-82
2022/11/15 06:06:27;;;;;;;;;3.00;2.00;;;;;;;;5087744;27;61940;-83
2022/11/15 06:08:52;;;;;;;;;2.50;2.50;;;;;;;;5105228;27;62313;-82
2022/11/15 06:11:18;;;;;;;;;2.00;2.00;;;;;;;;5087391;27;61709;-83
2022/11/15 06:13:43;;;;;;;;;3.00;3.00;;;;;;;;5087496;27;61986;-83
2022/11/15 06:16:14;;;;;;;;;2.25;2.25;;;;;;;;5087747;27;61941;-85
2022/11/15 06:18:40;;;;;;;;;5.75;4.00;;;;;;;;5108292;27;61796;-84
2022/11/15 06:21:06;;;;;;;;;3.50;2.75;;;;;;;;5089827;27;62178;-84
2022/11/15 06:23:32;;;;;;;;;3.00;3.00;;;;;;;;5087421;27;61765;-82
2022/11/15 06:25:58;;;;;;;;;3.75;3.00;;;;;;;;5105222;27;61862;-85
2022/11/15 06:28:24;;;;;;;;;4.00;3.00;;;;;;;;5080821;27;63389;-85
2022/11/15 06:30:49;;;;;;;;;3.75;2.00;;;;;;;;5086913;27;61792;-84
2022/11/15 06:33:14;;;;;;;;;4.00;3.00;;;;;;;;5105412;27;61791;-86
2022/11/15 06:35:41;;;;;;;;;6.25;3.75;;;;;;;;5105838;27;61748;-84
2022/11/15 06:38:10;;;;;;;;;4.25;3.00;;;;;;;;5085641;27;63364;-84
2022/11/15 06:40:37;;;;;;;;;2.25;2.00;;;;;;;;5085545;27;62181;-79
2022/11/15 06:43:03;;;;;;;;;3.75;3.75;;;;;;;;5084195;27;61950;-83
2022/11/15 06:45:29;;;;;;;;;4.25;3.50;;;;;;;;5086342;27;61994;-80
2022/11/15 06:47:55;;;;;;;;;2.25;1.50;;;;;;;;5086348;27;64706;-82
2022/11/15 06:50:20;;;;;;;;;2.00;2.00;;;;;;;;5085360;27;61967;-80
2022/11/15 06:52:45;;;;;;;;;4.75;4.00;;;;;;;;5103937;27;61736;-80
2022/11/15 06:55:11;;;;;;;;;4.00;3.00;;;;;;;;5104600;27;61677;-83
2022/11/15 06:57:36;;;;;;;;;3.25;3.25;;;;;;;;5085087;27;63757;-84
2022/11/15 07:00:03;;;;;;;;;6.00;4.00;;;;;;;;5086616;27;62142;-84
2022/11/15 07:02:29;;;;;;;;;8.00;6.25;;;;;;;;5086788;27;61841;-83
2022/11/15 07:04:54;;;;;;;;;4.25;3.00;;;;;;;;5085194;27;61809;-83
2022/11/15 07:07:19;;;;;;;;;6.00;3.25;;;;;;;;5084788;27;61874;-83
2022/11/15 07:09:44;;;;;;;;;4.75;4.75;;;;;;;;5085801;27;61848;-83
2022/11/15 07:12:10;;;;;;;;;2.50;2.50;;;;;;;;5104553;27;61614;-82
2022/11/15 07:14:35;;;;;;;;;3.50;3.50;;;;;;;;5085936;27;61891;-83
2022/11/15 07:17:02;;;;;;;;;6.00;4.75;;;;;;;;5103550;27;62010;-84
2022/11/15 07:19:28;;;;;;;;;4.50;4.50;;;;;;;;5085055;27;62108;-83
2022/11/15 07:21:53;;;;;;;;;1.75;1.75;;;;;;;;5085289;27;62216;-83
2022/11/15 07:24:18;;;;;;;;;8.25;4.00;;;;;;;;5086954;27;62088;-84
2022/11/15 07:26:44;;;;;;;;;6.00;3.25;;;;;;;;5085625;27;64345;-83
2022/11/15 07:29:09;;;;;;;;;4.50;4.50;;;;;;;;5104388;27;61826;-83
2022/11/15 07:31:35;;;;;;;;;3.75;3.75;;;;;;;;5085743;27;61913;-85
2022/11/15 07:34:00;;;;;;;;;2.00;2.00;;;;;;;;5085538;27;62332;-81
2022/11/15 07:36:25;;;;;;;;;4.25;3.00;;;;;;;;5079024;27;62101;-83
2022/11/15 07:38:51;;;;;;;;;3.75;2.75;;;;;;;;5104531;27;62016;-83
2022/11/15 07:41:16;;;;;;;;;2.75;2.75;;;;;;;;5085685;27;62238;-82
2022/11/15 07:43:45;;;;;;;;;4.75;3.25;;;;;;;;5104165;27;61883;-85
2022/11/15 07:46:10;;;;;;;;;2.50;2.50;;;;;;;;5103800;27;63069;-86
2022/11/15 07:48:36;;;;;;;;;3.00;1.75;;;;;;;;5103031;27;61908;-88
2022/11/15 07:51:10;;;;;;;;;6.00;3.00;;;;;;;;5084914;27;61955;-85
2022/11/15 07:53:35;;;;;;;;;5.00;4.00;;;;;;;;5085242;27;61920;-85
2022/11/15 07:56:05;;;;;;;;;3.00;3.00;;;;;;;;5103213;27;63143;-86
2022/11/15 07:58:36;;;;;;;;;3.00;3.00;;;;;;;;5084994;27;62014;-85
2022/11/15 08:01:03;;;;;;;;;3.50;2.75;;;;;;;;5084946;27;61990;-85
2022/11/15 08:03:31;;;;;;;;;4.75;3.00;;;;;;;;5102904;27;61963;-84
2022/11/15 08:05:57;;;;;;;;;4.00;2.25;;;;;;;;5100555;27;62291;-86
2022/11/15 08:08:23;;;;;;;;;3.00;3.00;;;;;;;;5082730;27;61753;-86
2022/11/15 08:11:00;;;;;;;;;2.50;1.00;;;;;;;;5078232;27;62231;-87
2022/11/15 08:13:25;;;;;;;;;3.75;3.00;;;;;;;;5085352;27;61843;-86
2022/11/15 08:15:50;;;;;;;;;4.50;3.00;;;;;;;;5083693;27;62885;-86
2022/11/15 08:18:16;;;;;;;;;4.00;3.00;;;;;;;;5103159;27;61767;-87
2022/11/15 08:20:41;;;;;;;;;5.25;4.25;;;;;;;;5101865;27;61945;-87
2022/11/15 08:23:08;;;;;;;;;2.00;1.00;;;;;;;;5103737;27;61913;-87
2022/11/15 08:25:34;;;;;;;;;0.00;0.00;;;;;;;;5084550;27;61846;-86
2022/11/15 08:28:00;;;;;;;;;1.00;1.00;;;;;;;;5103488;27;61638;-87
2022/11/15 08:30:26;;;;;;;;;3.75;1.75;;;;;;;;5085174;27;61964;-87
2022/11/15 08:32:52;;;;;;;;;6.00;3.00;;;;;;;;5103885;27;61828;-87
2022/11/15 08:35:18;;;;;;;;;2.00;2.00;;;;;;;;5080070;27;63745;-86
2022/11/15 08:37:43;;;;;;;;;3.00;2.00;;;;;;;;5079029;27;61697;-86
2022/11/15 08:40:09;;;;;;;;;2.75;2.00;;;;;;;;5103305;27;61665;-86
2022/11/15 08:42:34;;;;;;;;;3.00;2.00;;;;;;;;5085113;27;61883;-84
2022/11/15 08:45:00;;;;;;;;;3.00;2.00;;;;;;;;5102631;27;62928;-86
2022/11/15 08:47:26;;;;;;;;;1.75;1.75;;;;;;;;5084188;27;62178;-84
2022/11/15 08:49:51;;;;;;;;;2.25;2.25;;;;;;;;5101617;27;62023;-84
2022/11/15 08:52:16;;;;;;;;;4.25;1.75;;;;;;;;5085079;27;61816;-85
2022/11/15 08:54:41;;;;;;;;;3.75;3.00;;;;;;;;5102493;27;61924;-84
2022/11/15 08:57:09;;;;;;;;;3.00;3.00;;;;;;;;5084638;27;61880;-85
2022/11/15 08:59:34;;;;;;;;;2.00;2.00;;;;;;;;5103322;27;61763;-86
2022/11/15 09:01:59;;;;;;;;;4.50;2.00;;;;;;;;5103240;27;62009;-83
2022/11/15 09:04:25;;;;;;;;;1.50;1.50;;;;;;;;5083404;27;63388;-83
2022/11/15 09:06:50;;;;;;;;;5.25;2.75;;;;;;;;5084615;27;62005;-84
2022/11/15 09:09:15;;;;;;;;;4.00;3.75;;;;;;;;5084249;27;61938;-84
2022/11/15 09:11:41;;;;;;;;;4.25;2.00;;;;;;;;5084901;27;61784;-84
2022/11/15 09:14:06;;;;;;;;;4.00;3.00;;;;;;;;5083830;27;62141;-85
2022/11/15 09:16:31;;;;;;;;;2.00;1.00;;;;;;;;5103123;27;61791;-84
2022/11/15 09:18:57;;;;;;;;;7.25;2.00;;;;;;;;5083622;27;61965;-84
2022/11/15 09:21:22;;;;;;;;;4.00;2.75;;;;;;;;5106138;27;61866;-84
2022/11/15 09:23:49;;;;;;;;;1.75;1.75;;;;;;;;5109370;27;61993;-84
2022/11/15 09:26:15;;;;;;;;;2.50;2.50;;;;;;;;5109879;27;61753;-84
2022/11/15 09:28:41;;;;;;;;;2.50;2.00;;;;;;;;5091214;27;62098;-84
2022/11/15 09:31:07;;;;;;;;;4.00;2.25;;;;;;;;5091591;27;61820;-84
2022/11/15 09:33:32;;;;;;;;;2.00;2.00;;;;;;;;5089930;27;62257;-83
2022/11/15 09:36:02;;;;;;;;;2.50;1.00;;;;;;;;5102972;27;61865;-84
2022/11/15 09:38:28;;;;;;;;;3.75;2.00;;;;;;;;5091336;27;62105;-84
2022/11/15 09:40:59;;;;;;;;;3.25;1.50;;;;;;;;5091475;27;61973;-84
2022/11/15 09:43:43;;;;;;;;;4.50;3.00;;;;;;;;5090397;27;63562;-85
2022/11/15 09:46:15;;;;;;;;;2.25;2.00;;;;;;;;5090576;27;61776;-86
2022/11/15 09:48:43;;;;;;;;;2.00;2.00;;;;;;;;5108912;27;62295;-83
2022/11/15 09:51:14;;;;;;;;;2.75;2.00;;;;;;;;5108528;27;61931;-84
2022/11/15 09:53:43;;;;;;;;;1.00;1.00;;;;;;;;5108606;27;61877;-82
2022/11/15 09:56:19;;;;;;;;;4.50;1.00;;;;;;;;5090826;27;61905;-84
2022/11/15 09:59:03;;;;;;;;;1.75;1.75;;;;;;;;5091099;27;61817;-83
2022/11/15 10:01:29;;;;;;;;;3.00;2.00;;;;;;;;5109205;27;62242;-83
2022/11/15 10:03:56;;;;;;;;;1.50;1.50;;;;;;;;5108850;27;61868;-84
2022/11/15 10:06:23;;;;;;;;;2.25;0.00;;;;;;;;5090296;27;61974;-83
2022/11/15 10:09:26;;;;;;;;;2.00;2.00;;;;;;;;5107317;27;61761;-85
2022/11/15 10:11:52;;;;;;;;;2.00;1.00;;;;;;;;5075257;27;61959;-84
2022/11/15 10:14:19;;;;;;;;;1.50;1.00;;;;;;;;5078335;27;62329;-84
2022/11/15 10:17:03;;;;;;;;;2.00;2.00;;;;;;;;5078578;27;61916;-84
2022/11/15 10:19:37;;;;;;;;;1.25;1.25;;;;;;;;5078030;27;61780;-85
2022/11/15 10:22:12;;;;;;;;;0.50;0.25;;;;;;;;5077969;27;61958;-84
2022/11/15 10:24:41;;;;;;;;;0.00;0.00;;;;;;;;5079182;28;62436;-85
2022/11/15 10:27:09;;;;;;;;;61.50;42.50;;;;;;;;5077188;28;62213;-84
2022/11/15 10:29:35;;;;;;;;;15.25;12.75;;;;;;;;5078797;28;61944;-84
2022/11/15 10:32:00;;;;;;;;;6.00;3.75;;;;;;;;5078665;28;61871;-84
2022/11/15 10:34:26;;;;;;;;;6.25;3.00;;;;;;;;5077486;27;62123;-83
2022/11/15 10:36:59;;;;;;;;;3.00;2.25;;;;;;;;5071396;28;61926;-84
2022/11/15 10:39:25;;;;;;;;;2.50;2.50;;;;;;;;5078600;28;61700;-83
2022/11/15 10:41:50;;;;;;;;;1.75;1.75;;;;;;;;5078494;28;61884;-84
2022/11/15 10:44:24;;;;;;;;;1.50;1.50;;;;;;;;5079206;27;61732;-84
2022/11/15 10:46:56;;;;;;;;;2.00;2.00;;;;;;;;5076492;28;63077;-84
2022/11/15 10:49:25;;;;;;;;;4.00;1.00;;;;;;;;5078065;28;61839;-83
2022/11/15 10:52:09;;;;;;;;;4.00;2.00;;;;;;;;5077267;28;62104;-84
2022/11/15 10:54:42;;;;;;;;;2.50;1.50;;;;;;;;5078823;28;62243;-84
2022/11/15 10:57:12;;;;;;;;;3.50;2.50;;;;;;;;5077984;28;62834;-86
2022/11/15 10:59:38;;;;;;;;;6.50;2.75;;;;;;;;5076677;28;61985;-85
2022/11/15 11:02:23;;;;;;;;;2.00;2.00;;;;;;;;5077429;28;61940;-86
2022/11/15 11:04:49;;;;;;;;;4.75;3.50;;;;;;;;5078035;28;61764;-84
2022/11/15 11:07:23;;;;;;;;;7.25;2.75;;;;;;;;5081419;27;61883;-85
2022/11/15 11:09:56;;;;;;;;;4.50;1.75;;;;;;;;5098305;27;62030;-85
2022/11/15 11:12:26;;;;;;;;;1.75;1.75;;;;;;;;5097809;27;61782;-85
2022/11/15 11:14:52;;;;;;;;;1.00;1.00;;;;;;;;5097451;27;61716;-84
2022/11/15 11:17:23;;;;;;;;;4.00;3.00;;;;;;;;5098431;27;62016;-83
2022/11/15 11:19:51;;;;;;;;;1.75;1.00;;;;;;;;5086183;27;61800;-84
2022/11/15 11:22:17;;;;;;;;;2.00;2.00;;;;;;;;5085441;28;61635;-86
2022/11/15 11:24:51;;;;;;;;;2.25;1.75;;;;;;;;5083325;27;62137;-85
2022/11/15 11:27:31;;;;;;;;;2.50;2.00;;;;;;;;5084512;27;63234;-83
2022/11/15 11:30:02;;;;;;;;;4.00;3.00;;;;;;;;5083718;28;61888;-82
2022/11/15 11:32:47;;;;;;;;;1.00;1.00;;;;;;;;5084850;27;61998;-87
2022/11/15 11:35:15;;;;;;;;;4.50;2.75;;;;;;;;5084769;27;61682;-85
2022/11/15 11:37:54;;;;;;;;;5.00;4.00;;;;;;;;5083587;28;61734;-82
2022/11/15 11:40:30;;;;;;;;;6.50;2.50;;;;;;;;5084609;28;61848;-86
2022/11/15 11:43:04;;;;;;;;;3.00;2.00;;;;;;;;5084777;27;62144;-85
2022/11/15 11:45:49;;;;;;;;;2.00;2.00;;;;;;;;5085131;28;61797;-84
2022/11/15 11:48:34;;;;;;;;;2.00;2.00;;;;;;;;5084320;28;62130;-84
2022/11/15 11:51:05;;;;;;;;;3.75;3.00;;;;;;;;5084074;28;61847;-86
2022/11/15 11:53:42;;;;;;;;;5.00;5.00;;;;;;;;5083186;28;62331;-84
2022/11/15 11:56:21;;;;;;;;;2.75;2.00;;;;;;;;5084484;27;61809;-85
2022/11/15 11:58:48;;;;;;;;;3.25;2.25;;;;;;;;5081745;27;63207;-83
2022/11/15 12:01:13;;;;;;;;;2.75;2.75;;;;;;;;5082744;28;61889;-85
2022/11/15 12:03:44;;;;;;;;;4.00;4.00;;;;;;;;5078043;27;61846;-81
2022/11/15 12:06:28;;;;;;;;;3.50;3.50;;;;;;;;5076831;28;62032;-86
2022/11/15 12:08:58;;;;;;;;;6.00;5.00;;;;;;;;5079555;27;63921;-81
2022/11/15 12:11:26;;;;;;;;;5.25;4.00;;;;;;;;5080711;27;61685;-86
2022/11/15 12:13:56;;;;;;;;;5.75;3.25;;;;;;;;5082753;27;61764;-87
2022/11/15 12:16:21;;;;;;;;;5.00;4.00;;;;;;;;5081337;28;62137;-86
2022/11/15 12:18:49;;;;;;;;;4.75;2.50;;;;;;;;5081309;27;62124;-86
2022/11/15 12:21:18;;;;;;;;;4.00;4.00;;;;;;;;5082447;27;61750;-86
2022/11/15 12:23:52;;;;;;;;;7.75;5.00;;;;;;;;5082364;27;62045;-85
2022/11/15 12:26:21;;;;;;;;;4.00;3.00;;;;;;;;5083036;27;62000;-85
2022/11/15 12:28:58;;;;;;;;;4.75;4.75;;;;;;;;5083522;28;63647;-85
2022/11/15 12:31:35;;;;;;;;;6.25;5.00;;;;;;;;5081460;27;62009;-85
2022/11/15 12:34:02;;;;;;;;;7.25;5.75;;;;;;;;5081801;27;61891;-87
2022/11/15 12:36:37;;;;;;;;;6.25;4.75;;;;;;;;5081767;27;62354;-85
2022/11/15 12:39:06;;;;;;;;;4.25;4.25;;;;;;;;5080789;27;64655;-83
2022/11/15 12:41:36;;;;;;;;;4.00;3.00;;;;;;;;5080168;28;62165;-83
2022/11/15 12:44:04;;;;;;;;;8.00;3.25;;;;;;;;5080940;27;62016;-84
2022/11/15 12:46:29;;;;;;;;;3.00;3.00;;;;;;;;5078964;28;62140;-83
2022/11/15 12:48:55;;;;;;;;;2.75;2.75;;;;;;;;5081632;27;61869;-84
2022/11/15 12:51:22;;;;;;;;;3.25;3.25;;;;;;;;5081339;28;61930;-84
2022/11/15 12:53:48;;;;;;;;;7.00;3.00;;;;;;;;5082814;28;61925;-84
2022/11/15 12:56:14;;;;;;;;;4.25;3.00;;;;;;;;5081206;27;62408;-84
2022/11/15 12:58:46;;;;;;;;;3.25;3.00;;;;;;;;5080858;27;62797;-83
2022/11/15 13:01:33;;;;;;;;;4.25;3.00;;;;;;;;5078766;28;62602;-84
2022/11/15 13:04:14;;;;;;;;;2.25;2.25;;;;;;;;5080056;28;62101;-81
2022/11/15 13:06:39;;;;;;;;;3.25;3.25;;;;;;;;5081635;28;62406;-81
2022/11/15 13:09:24;;;;;;;;;3.75;2.75;;;;;;;;5080637;27;63085;-87
2022/11/15 13:11:50;;;;;;;;;5.00;4.00;;;;;;;;5079546;28;62056;-88
2022/11/15 13:14:34;;;;;;;;;3.00;3.00;;;;;;;;5081545;27;61838;-88
2022/11/15 13:17:00;;;;;;;;;6.25;5.00;;;;;;;;5080438;27;61840;-88
2022/11/15 13:19:26;;;;;;;;;3.25;3.00;;;;;;;;5079729;28;63623;-88
2022/11/15 13:24:38;;;;;;;;;6.00;2.25;;;;;;;;5082579;28;61861;-89
2022/11/15 13:27:10;;;;;;;;;5.00;3.75;;;;;;;;5081611;27;62191;-88
2022/11/15 13:29:36;;;;;;;;;8.25;3.75;;;;;;;;5080900;27;62474;-88
2022/11/15 13:32:03;;;;;;;;;4.00;3.00;;;;;;;;5081593;27;61993;-88
2022/11/15 13:34:32;;;;;;;;;3.00;2.50;;;;;;;;5081748;28;62027;-88
2022/11/15 13:36:58;;;;;;;;;3.75;3.25;;;;;;;;5079620;27;61965;-88
2022/11/15 13:39:26;;;;;;;;;3.50;2.50;;;;;;;;5079580;27;63340;-81
2022/11/15 13:41:52;;;;;;;;;3.50;2.00;;;;;;;;5082392;28;61939;-83
2022/11/15 13:44:21;;;;;;;;;2.75;2.00;;;;;;;;5081349;27;61759;-81
2022/11/15 13:46:47;;;;;;;;;4.25;3.00;;;;;;;;5083160;28;61812;-82
2022/11/15 13:49:12;;;;;;;;;5.75;4.00;;;;;;;;5081181;27;62804;-82
2022/11/15 13:51:46;;;;;;;;;1.50;1.50;;;;;;;;5082560;28;62189;-81
2022/11/15 13:54:11;;;;;;;;;3.50;2.00;;;;;;;;5081130;27;61796;-82
2022/11/15 13:56:37;;;;;;;;;2.00;2.00;;;;;;;;5081833;27;61842;-82
2022/11/15 13:59:09;;;;;;;;;3.25;3.00;;;;;;;;5082264;28;62404;-83
2022/11/15 14:01:35;;;;;;;;;4.00;2.00;;;;;;;;5081256;27;61918;-82
2022/11/15 14:04:00;;;;;;;;;2.00;2.00;;;;;;;;5081185;27;62021;-82
2022/11/15 14:06:28;;;;;;;;;3.50;3.00;;;;;;;;5080883;27;62360;-82
2022/11/15 14:09:04;;;;;;;;;3.00;3.00;;;;;;;;5079948;27;64280;-82
2022/11/15 14:11:30;;;;;;;;;5.50;3.00;;;;;;;;5082206;27;62216;-84
2022/11/15 14:14:04;;;;;;;;;6.50;4.75;;;;;;;;5081160;27;61877;-83
2022/11/15 14:16:37;;;;;;;;;3.25;3.25;;;;;;;;5082586;27;62269;-83
2022/11/15 14:19:03;;;;;;;;;4.50;2.00;;;;;;;;5081414;28;61979;-82
2022/11/15 14:21:28;;;;;;;;;3.00;3.00;;;;;;;;5080340;27;62148;-82
2022/11/15 14:24:13;;;;;;;;;1.25;1.25;;;;;;;;5080375;28;62140;-81
2022/11/15 14:26:38;;;;;;;;;3.00;3.00;;;;;;;;5082603;28;61756;-82
2022/11/15 14:29:23;;;;;;;;;2.75;2.75;;;;;;;;5080401;27;61838;-82
2022/11/15 14:31:48;;;;;;;;;3.00;3.00;;;;;;;;5081847;27;61882;-82
2022/11/15 14:34:13;;;;;;;;;1.50;1.50;;;;;;;;5082157;28;61728;-83
2022/11/15 14:36:38;;;;;;;;;2.50;1.75;;;;;;;;5076982;27;62410;-83
2022/11/15 14:39:05;;;;;;;;;3.50;2.50;;;;;;;;5079503;27;62870;-82
2022/11/15 14:41:37;;;;;;;;;5.00;3.00;;;;;;;;5079871;27;61932;-82
2022/11/15 14:44:03;;;;;;;;;2.00;2.00;;;;;;;;5079889;28;62092;-82
2022/11/15 14:46:28;;;;;;;;;3.00;3.00;;;;;;;;5080531;28;61897;-83
2022/11/15 14:48:54;;;;;;;;;5.75;4.75;;;;;;;;5080937;27;61777;-82
2022/11/15 14:51:19;;;;;;;;;4.00;3.50;;;;;;;;5080770;28;61835;-81
2022/11/15 14:53:45;;;;;;;;;7.00;5.25;;;;;;;;5081005;28;61756;-82
2022/11/15 14:56:10;;;;;;;;;1.25;0.75;;;;;;;;5085267;27;62112;-82
2022/11/15 14:58:36;;;;;;;;;11.75;6.00;;;;;;;;5084150;28;61988;-82
2022/11/15 15:01:10;;;;;;;;;4.00;3.00;;;;;;;;5081954;27;61861;-82
2022/11/15 15:03:35;;;;;;;;;5.75;4.50;;;;;;;;5081944;27;62147;-82
2022/11/15 15:06:01;;;;;;;;;8.25;6.00;;;;;;;;5083031;27;61959;-81